sensor_id;sensor_type;location;lat;lon;timestamp;temperature;humidity
56478;DHT22;42382;53.210;5.772;2022-12-08T00:00:46;3.70;92.10
56478;DHT22;42382;53.210;5.772;2022-12-08T00:03:12;3.70;92.10
56478;DHT22;42382;53.210;5.772;2022-12-08T00:05:37;3.70;92.00
56478;DHT22;42382;53.210;5.772;2022-12-08T00:08:21;3.70;92.00
56478;DHT22;42382;53.210;5.772;2022-12-08T00:11:11;3.70;92.10
56478;DHT22;42382;53.210;5.772;2022-12-08T00:13:37;3.60;92.10
56478;DHT22;42382;53.210;5.772;2022-12-08T00:16:02;3.60;92.10
56478;DHT22;42382;53.210;5.772;2022-12-08T00:18:28;3.60;92.20
56478;DHT22;42382;53.210;5.772;2022-12-08T00:20:57;3.60;92.20
56478;DHT22;42382;53.210;5.772;2022-12-08T00:23:23;3.60;92.20
56478;DHT22;42382;53.210;5.772;2022-12-08T00:25:49;3.60;92.20
56478;DHT22;42382;53.210;5.772;2022-12-08T00:28:15;3.60;92.20
56478;DHT22;42382;53.210;5.772;2022-12-08T00:30:41;3.50;92.20
56478;DHT22;42382;53.210;5.772;2022-12-08T00:33:07;3.50;92.30
56478;DHT22;42382;53.210;5.772;2022-12-08T00:35:33;3.50;92.30
56478;DHT22;42382;53.210;5.772;2022-12-08T00:37:59;3.50;92.30
56478;DHT22;42382;53.210;5.772;2022-12-08T00:40:25;3.50;92.40
56478;DHT22;42382;53.210;5.772;2022-12-08T00:42:51;3.50;92.40
56478;DHT22;42382;53.210;5.772;2022-12-08T00:45:16;3.50;92.40
56478;DHT22;42382;53.210;5.772;2022-12-08T00:47:42;3.50;92.40
56478;DHT22;42382;53.210;5.772;2022-12-08T00:50:08;3.60;92.40
56478;DHT22;42382;53.210;5.772;2022-12-08T00:52:34;3.60;92.40
56478;DHT22;42382;53.210;5.772;2022-12-08T00:54:59;3.60;92.50
56478;DHT22;42382;53.210;5.772;2022-12-08T00:57:25;3.60;92.50
56478;DHT22;42382;53.210;5.772;2022-12-08T00:59:51;3.60;92.60
56478;DHT22;42382;53.210;5.772;2022-12-08T01:02:16;3.60;92.60
56478;DHT22;42382;53.210;5.772;2022-12-08T01:04:42;3.60;92.60
56478;DHT22;42382;53.210;5.772;2022-12-08T01:07:07;3.60;92.50
56478;DHT22;42382;53.210;5.772;2022-12-08T01:09:33;3.50;92.50
56478;DHT22;42382;53.210;5.772;2022-12-08T01:11:59;3.50;92.50
56478;DHT22;42382;53.210;5.772;2022-12-08T01:14:24;3.50;92.50
56478;DHT22;42382;53.210;5.772;2022-12-08T01:16:50;3.50;92.40
56478;DHT22;42382;53.210;5.772;2022-12-08T01:19:16;3.40;92.30
56478;DHT22;42382;53.210;5.772;2022-12-08T01:21:43;3.40;92.30
56478;DHT22;42382;53.210;5.772;2022-12-08T01:24:18;3.30;92.30
56478;DHT22;42382;53.210;5.772;2022-12-08T01:26:44;3.30;92.40
56478;DHT22;42382;53.210;5.772;2022-12-08T01:29:10;3.20;92.30
56478;DHT22;42382;53.210;5.772;2022-12-08T01:31:36;3.20;92.40
56478;DHT22;42382;53.210;5.772;2022-12-08T01:34:02;3.20;92.40
56478;DHT22;42382;53.210;5.772;2022-12-08T01:36:31;3.20;92.40
56478;DHT22;42382;53.210;5.772;2022-12-08T01:38:59;3.20;92.50
56478;DHT22;42382;53.210;5.772;2022-12-08T01:41:28;3.20;92.50
56478;DHT22;42382;53.210;5.772;2022-12-08T01:44:48;3.20;92.50
56478;DHT22;42382;53.210;5.772;2022-12-08T01:46:49;3.30;92.70
56478;DHT22;42382;53.210;5.772;2022-12-08T01:49:28;3.20;92.60
56478;DHT22;42382;53.210;5.772;2022-12-08T01:52:17;3.30;92.70
56478;DHT22;42382;53.210;5.772;2022-12-08T01:54:59;3.30;92.80
56478;DHT22;42382;53.210;5.772;2022-12-08T01:57:42;3.30;92.80
56478;DHT22;42382;53.210;5.772;2022-12-08T02:00:11;3.40;92.80
56478;DHT22;42382;53.210;5.772;2022-12-08T02:03:04;3.30;92.80
56478;DHT22;42382;53.210;5.772;2022-12-08T02:05:33;3.40;92.80
56478;DHT22;42382;53.210;5.772;2022-12-08T02:08:03;3.30;92.70
56478;DHT22;42382;53.210;5.772;2022-12-08T02:10:35;3.30;92.80
56478;DHT22;42382;53.210;5.772;2022-12-08T02:13:03;3.40;92.70
56478;DHT22;42382;53.210;5.772;2022-12-08T02:15:41;3.40;92.70
56478;DHT22;42382;53.210;5.772;2022-12-08T02:18:24;3.40;92.70
56478;DHT22;42382;53.210;5.772;2022-12-08T02:20:56;3.40;92.80
56478;DHT22;42382;53.210;5.772;2022-12-08T02:23:36;3.40;92.70
56478;DHT22;42382;53.210;5.772;2022-12-08T02:29:28;3.40;92.60
56478;DHT22;42382;53.210;5.772;2022-12-08T02:34:30;3.20;92.30
56478;DHT22;42382;53.210;5.772;2022-12-08T02:37:17;3.10;92.30
56478;DHT22;42382;53.210;5.772;2022-12-08T02:42:51;2.90;92.40
56478;DHT22;42382;53.210;5.772;2022-12-08T02:45:27;2.90;92.50
56478;DHT22;42382;53.210;5.772;2022-12-08T02:47:57;2.80;92.50
56478;DHT22;42382;53.210;5.772;2022-12-08T02:50:22;2.90;92.60
56478;DHT22;42382;53.210;5.772;2022-12-08T02:52:48;2.80;92.60
56478;DHT22;42382;53.210;5.772;2022-12-08T02:55:25;2.80;92.60
56478;DHT22;42382;53.210;5.772;2022-12-08T03:03:27;2.80;92.60
56478;DHT22;42382;53.210;5.772;2022-12-08T03:09:05;2.80;92.60
56478;DHT22;42382;53.210;5.772;2022-12-08T03:11:37;2.70;92.60
56478;DHT22;42382;53.210;5.772;2022-12-08T03:14:05;2.80;92.50
56478;DHT22;42382;53.210;5.772;2022-12-08T03:16:31;2.70;92.50
56478;DHT22;42382;53.210;5.772;2022-12-08T03:21:51;2.70;92.60
56478;DHT22;42382;53.210;5.772;2022-12-08T03:24:18;2.70;92.50
56478;DHT22;42382;53.210;5.772;2022-12-08T03:26:58;2.70;92.50
56478;DHT22;42382;53.210;5.772;2022-12-08T03:29:25;2.60;92.60
56478;DHT22;42382;53.210;5.772;2022-12-08T03:31:57;2.70;92.60
56478;DHT22;42382;53.210;5.772;2022-12-08T03:34:26;2.60;92.60
56478;DHT22;42382;53.210;5.772;2022-12-08T03:36:53;2.60;92.60
56478;DHT22;42382;53.210;5.772;2022-12-08T03:39:19;2.60;92.60
56478;DHT22;42382;53.210;5.772;2022-12-08T03:41:45;2.60;92.60
56478;DHT22;42382;53.210;5.772;2022-12-08T03:44:11;2.60;92.70
56478;DHT22;42382;53.210;5.772;2022-12-08T03:46:37;2.60;92.70
56478;DHT22;42382;53.210;5.772;2022-12-08T03:49:03;2.60;92.70
56478;DHT22;42382;53.210;5.772;2022-12-08T03:51:28;2.60;92.70
56478;DHT22;42382;53.210;5.772;2022-12-08T03:53:54;2.60;92.80
56478;DHT22;42382;53.210;5.772;2022-12-08T03:56:33;2.60;92.70
56478;DHT22;42382;53.210;5.772;2022-12-08T03:58:59;2.60;92.80
56478;DHT22;42382;53.210;5.772;2022-12-08T04:01:25;2.60;92.80
56478;DHT22;42382;53.210;5.772;2022-12-08T04:03:51;2.60;92.80
56478;DHT22;42382;53.210;5.772;2022-12-08T04:06:17;2.60;92.80
56478;DHT22;42382;53.210;5.772;2022-12-08T04:08:43;2.60;92.80
56478;DHT22;42382;53.210;5.772;2022-12-08T04:11:09;2.50;92.80
56478;DHT22;42382;53.210;5.772;2022-12-08T04:13:38;2.50;92.80
56478;DHT22;42382;53.210;5.772;2022-12-08T04:16:05;2.50;92.90
56478;DHT22;42382;53.210;5.772;2022-12-08T04:18:31;2.60;92.90
56478;DHT22;42382;53.210;5.772;2022-12-08T04:20:57;2.60;92.90
56478;DHT22;42382;53.210;5.772;2022-12-08T04:23:23;2.60;93.00
56478;DHT22;42382;53.210;5.772;2022-12-08T04:25:50;2.60;93.00
56478;DHT22;42382;53.210;5.772;2022-12-08T04:28:16;2.60;93.00
56478;DHT22;42382;53.210;5.772;2022-12-08T04:30:42;2.60;93.00
56478;DHT22;42382;53.210;5.772;2022-12-08T04:33:08;2.60;93.00
56478;DHT22;42382;53.210;5.772;2022-12-08T04:35:33;2.60;93.10
56478;DHT22;42382;53.210;5.772;2022-12-08T04:37:59;2.60;93.10
56478;DHT22;42382;53.210;5.772;2022-12-08T04:40:25;2.60;93.10
56478;DHT22;42382;53.210;5.772;2022-12-08T04:42:50;2.60;93.10
56478;DHT22;42382;53.210;5.772;2022-12-08T04:45:16;2.60;93.10
56478;DHT22;42382;53.210;5.772;2022-12-08T04:47:42;2.60;93.10
56478;DHT22;42382;53.210;5.772;2022-12-08T04:50:08;2.60;93.20
56478;DHT22;42382;53.210;5.772;2022-12-08T04:52:34;2.70;93.20
56478;DHT22;42382;53.210;5.772;2022-12-08T04:54:59;2.70;93.20
56478;DHT22;42382;53.210;5.772;2022-12-08T04:57:25;2.60;93.20
56478;DHT22;42382;53.210;5.772;2022-12-08T04:59:50;2.70;93.20
56478;DHT22;42382;53.210;5.772;2022-12-08T05:02:16;2.70;93.10
56478;DHT22;42382;53.210;5.772;2022-12-08T05:04:42;2.60;93.10
56478;DHT22;42382;53.210;5.772;2022-12-08T05:07:07;2.70;93.20
56478;DHT22;42382;53.210;5.772;2022-12-08T05:09:33;2.70;93.10
56478;DHT22;42382;53.210;5.772;2022-12-08T05:11:58;2.70;93.20
56478;DHT22;42382;53.210;5.772;2022-12-08T05:14:24;2.70;93.20
56478;DHT22;42382;53.210;5.772;2022-12-08T05:16:50;2.60;93.20
56478;DHT22;42382;53.210;5.772;2022-12-08T05:19:16;2.70;93.20
56478;DHT22;42382;53.210;5.772;2022-12-08T05:21:41;2.70;93.20
56478;DHT22;42382;53.210;5.772;2022-12-08T05:24:07;2.70;93.20
56478;DHT22;42382;53.210;5.772;2022-12-08T05:26:33;2.70;93.20
56478;DHT22;42382;53.210;5.772;2022-12-08T05:28:58;2.70;93.30
56478;DHT22;42382;53.210;5.772;2022-12-08T05:31:24;2.80;93.30
56478;DHT22;42382;53.210;5.772;2022-12-08T05:33:50;2.80;93.30
56478;DHT22;42382;53.210;5.772;2022-12-08T05:36:17;2.90;93.20
56478;DHT22;42382;53.210;5.772;2022-12-08T05:38:43;2.90;93.20
56478;DHT22;42382;53.210;5.772;2022-12-08T05:41:15;3.00;93.10
56478;DHT22;42382;53.210;5.772;2022-12-08T05:43:41;2.90;93.10
56478;DHT22;42382;53.210;5.772;2022-12-08T05:46:07;2.90;93.00
56478;DHT22;42382;53.210;5.772;2022-12-08T05:48:33;2.90;93.00
56478;DHT22;42382;53.210;5.772;2022-12-08T05:50:58;2.90;92.90
56478;DHT22;42382;53.210;5.772;2022-12-08T05:53:25;2.80;92.90
56478;DHT22;42382;53.210;5.772;2022-12-08T05:55:51;2.80;92.90
56478;DHT22;42382;53.210;5.772;2022-12-08T05:58:19;2.80;92.90
56478;DHT22;42382;53.210;5.772;2022-12-08T06:00:45;2.80;92.80
56478;DHT22;42382;53.210;5.772;2022-12-08T06:03:12;2.80;92.80
56478;DHT22;42382;53.210;5.772;2022-12-08T06:05:41;2.80;92.80
56478;DHT22;42382;53.210;5.772;2022-12-08T06:08:07;2.70;92.70
56478;DHT22;42382;53.210;5.772;2022-12-08T06:10:33;2.70;92.70
56478;DHT22;42382;53.210;5.772;2022-12-08T06:12:58;2.60;92.70
56478;DHT22;42382;53.210;5.772;2022-12-08T06:15:27;2.60;92.60
56478;DHT22;42382;53.210;5.772;2022-12-08T06:17:52;2.60;92.60
56478;DHT22;42382;53.210;5.772;2022-12-08T06:20:18;2.50;92.60
56478;DHT22;42382;53.210;5.772;2022-12-08T06:22:43;2.50;92.60
56478;DHT22;42382;53.210;5.772;2022-12-08T06:25:09;2.40;92.50
56478;DHT22;42382;53.210;5.772;2022-12-08T06:27:34;2.40;92.50
56478;DHT22;42382;53.210;5.772;2022-12-08T06:30:03;2.30;92.40
56478;DHT22;42382;53.210;5.772;2022-12-08T06:32:29;2.20;92.40
56478;DHT22;42382;53.210;5.772;2022-12-08T06:34:55;2.20;92.30
56478;DHT22;42382;53.210;5.772;2022-12-08T06:37:20;2.10;92.30
56478;DHT22;42382;53.210;5.772;2022-12-08T06:39:46;2.00;92.30
56478;DHT22;42382;53.210;5.772;2022-12-08T06:42:12;1.90;92.20
56478;DHT22;42382;53.210;5.772;2022-12-08T06:44:56;2.00;92.30
56478;DHT22;42382;53.210;5.772;2022-12-08T06:47:22;1.90;92.20
56478;DHT22;42382;53.210;5.772;2022-12-08T06:49:48;1.90;92.20
56478;DHT22;42382;53.210;5.772;2022-12-08T06:52:14;1.80;92.20
56478;DHT22;42382;53.210;5.772;2022-12-08T06:54:39;1.70;92.20
56478;DHT22;42382;53.210;5.772;2022-12-08T06:57:05;1.70;92.20
56478;DHT22;42382;53.210;5.772;2022-12-08T06:59:31;1.60;92.20
56478;DHT22;42382;53.210;5.772;2022-12-08T07:01:56;1.60;92.20
56478;DHT22;42382;53.210;5.772;2022-12-08T07:04:22;1.60;92.20
56478;DHT22;42382;53.210;5.772;2022-12-08T07:06:48;1.50;92.20
56478;DHT22;42382;53.210;5.772;2022-12-08T07:09:13;1.40;92.20
56478;DHT22;42382;53.210;5.772;2022-12-08T07:11:39;1.40;92.20
56478;DHT22;42382;53.210;5.772;2022-12-08T07:14:05;1.40;92.20
56478;DHT22;42382;53.210;5.772;2022-12-08T07:16:31;1.30;92.10
56478;DHT22;42382;53.210;5.772;2022-12-08T07:18:57;1.30;92.20
56478;DHT22;42382;53.210;5.772;2022-12-08T07:21:23;1.30;92.20
56478;DHT22;42382;53.210;5.772;2022-12-08T07:23:49;1.30;92.20
56478;DHT22;42382;53.210;5.772;2022-12-08T07:26:15;1.30;92.20
56478;DHT22;42382;53.210;5.772;2022-12-08T07:28:41;1.20;92.20
56478;DHT22;42382;53.210;5.772;2022-12-08T07:31:15;1.10;92.20
56478;DHT22;42382;53.210;5.772;2022-12-08T07:33:41;1.10;92.20
56478;DHT22;42382;53.210;5.772;2022-12-08T07:36:07;1.10;92.20
56478;DHT22;42382;53.210;5.772;2022-12-08T07:38:33;1.10;92.30
56478;DHT22;42382;53.210;5.772;2022-12-08T07:40:59;1.10;92.20
56478;DHT22;42382;53.210;5.772;2022-12-08T07:43:24;1.00;92.20
56478;DHT22;42382;53.210;5.772;2022-12-08T07:45:50;1.00;92.30
56478;DHT22;42382;53.210;5.772;2022-12-08T07:48:16;1.00;92.20
56478;DHT22;42382;53.210;5.772;2022-12-08T07:50:45;1.00;92.30
56478;DHT22;42382;53.210;5.772;2022-12-08T07:53:10;1.00;92.30
56478;DHT22;42382;53.210;5.772;2022-12-08T07:55:41;1.00;92.30
56478;DHT22;42382;53.210;5.772;2022-12-08T07:58:07;1.00;92.30
56478;DHT22;42382;53.210;5.772;2022-12-08T08:00:32;1.00;92.40
56478;DHT22;42382;53.210;5.772;2022-12-08T08:02:58;1.00;92.40
56478;DHT22;42382;53.210;5.772;2022-12-08T08:05:24;1.00;92.40
56478;DHT22;42382;53.210;5.772;2022-12-08T08:07:50;1.00;92.50
56478;DHT22;42382;53.210;5.772;2022-12-08T08:10:16;1.00;92.50
56478;DHT22;42382;53.210;5.772;2022-12-08T08:12:41;1.10;92.50
56478;DHT22;42382;53.210;5.772;2022-12-08T08:15:08;1.00;92.50
56478;DHT22;42382;53.210;5.772;2022-12-08T08:17:35;1.00;92.50
56478;DHT22;42382;53.210;5.772;2022-12-08T08:20:05;1.10;92.60
56478;DHT22;42382;53.210;5.772;2022-12-08T08:22:32;1.00;92.50
56478;DHT22;42382;53.210;5.772;2022-12-08T08:24:58;1.10;92.60
56478;DHT22;42382;53.210;5.772;2022-12-08T08:27:23;1.10;92.60
56478;DHT22;42382;53.210;5.772;2022-12-08T08:29:50;1.20;92.70
56478;DHT22;42382;53.210;5.772;2022-12-08T08:32:16;1.30;92.80
56478;DHT22;42382;53.210;5.772;2022-12-08T08:34:41;1.40;92.80
56478;DHT22;42382;53.210;5.772;2022-12-08T08:37:07;1.40;92.90
56478;DHT22;42382;53.210;5.772;2022-12-08T08:39:32;1.50;93.00
56478;DHT22;42382;53.210;5.772;2022-12-08T08:41:58;1.60;93.00
56478;DHT22;42382;53.210;5.772;2022-12-08T08:44:24;1.60;93.10
56478;DHT22;42382;53.210;5.772;2022-12-08T08:46:49;1.70;93.20
56478;DHT22;42382;53.210;5.772;2022-12-08T08:49:15;1.70;93.30
56478;DHT22;42382;53.210;5.772;2022-12-08T08:51:43;1.80;93.30
56478;DHT22;42382;53.210;5.772;2022-12-08T08:54:08;1.80;93.40
56478;DHT22;42382;53.210;5.772;2022-12-08T08:56:34;2.00;93.40
56478;DHT22;42382;53.210;5.772;2022-12-08T08:59:00;2.00;93.50
56478;DHT22;42382;53.210;5.772;2022-12-08T09:01:28;2.00;93.50
56478;DHT22;42382;53.210;5.772;2022-12-08T09:03:54;2.10;93.50
56478;DHT22;42382;53.210;5.772;2022-12-08T09:06:21;2.10;93.50
56478;DHT22;42382;53.210;5.772;2022-12-08T09:08:47;2.10;93.50
56478;DHT22;42382;53.210;5.772;2022-12-08T09:11:13;2.10;93.50
56478;DHT22;42382;53.210;5.772;2022-12-08T09:13:39;2.00;93.50
56478;DHT22;42382;53.210;5.772;2022-12-08T09:16:06;2.00;93.40
56478;DHT22;42382;53.210;5.772;2022-12-08T09:18:33;2.00;93.40
56478;DHT22;42382;53.210;5.772;2022-12-08T09:21:10;2.10;93.30
56478;DHT22;42382;53.210;5.772;2022-12-08T09:23:38;2.10;93.40
56478;DHT22;42382;53.210;5.772;2022-12-08T09:26:04;2.10;93.30
56478;DHT22;42382;53.210;5.772;2022-12-08T09:28:30;2.10;93.30
56478;DHT22;42382;53.210;5.772;2022-12-08T09:30:56;2.10;93.20
56478;DHT22;42382;53.210;5.772;2022-12-08T09:33:22;2.10;93.20
56478;DHT22;42382;53.210;5.772;2022-12-08T09:35:48;2.20;93.20
56478;DHT22;42382;53.210;5.772;2022-12-08T09:38:13;2.20;93.20
56478;DHT22;42382;53.210;5.772;2022-12-08T09:40:51;2.30;93.10
56478;DHT22;42382;53.210;5.772;2022-12-08T09:45:49;2.40;93.20
56478;DHT22;42382;53.210;5.772;2022-12-08T09:48:23;2.40;93.10
56478;DHT22;42382;53.210;5.772;2022-12-08T09:50:54;2.40;93.10
56478;DHT22;42382;53.210;5.772;2022-12-08T09:56:15;2.50;93.10
56478;DHT22;42382;53.210;5.772;2022-12-08T09:58:59;2.60;93.10
56478;DHT22;42382;53.210;5.772;2022-12-08T10:01:27;2.70;93.10
56478;DHT22;42382;53.210;5.772;2022-12-08T10:03:54;2.90;93.10
56478;DHT22;42382;53.210;5.772;2022-12-08T10:06:28;3.00;93.10
56478;DHT22;42382;53.210;5.772;2022-12-08T10:14:30;3.30;92.90
56478;DHT22;42382;53.210;5.772;2022-12-08T10:17:11;3.30;92.90
56478;DHT22;42382;53.210;5.772;2022-12-08T10:19:39;3.40;92.80
56478;DHT22;42382;53.210;5.772;2022-12-08T10:22:24;3.30;92.70
56478;DHT22;42382;53.210;5.772;2022-12-08T10:24:59;3.40;92.70
56478;DHT22;42382;53.210;5.772;2022-12-08T10:27:25;3.40;92.60
56478;DHT22;42382;53.210;5.772;2022-12-08T10:29:51;3.40;92.60
56478;DHT22;42382;53.210;5.772;2022-12-08T10:32:19;3.50;92.50
56478;DHT22;42382;53.210;5.772;2022-12-08T10:35:10;3.60;92.50
56478;DHT22;42382;53.210;5.772;2022-12-08T10:37:36;3.70;92.50
56478;DHT22;42382;53.210;5.772;2022-12-08T10:40:15;3.80;92.50
56478;DHT22;42382;53.210;5.772;2022-12-08T10:42:50;4.00;92.40
56478;DHT22;42382;53.210;5.772;2022-12-08T10:45:29;4.20;92.30
56478;DHT22;42382;53.210;5.772;2022-12-08T10:48:12;4.30;92.10
56478;DHT22;42382;53.210;5.772;2022-12-08T10:51:00;4.30;92.10
56478;DHT22;42382;53.210;5.772;2022-12-08T10:53:33;4.40;91.90
56478;DHT22;42382;53.210;5.772;2022-12-08T10:56:13;4.40;91.80
56478;DHT22;42382;53.210;5.772;2022-12-08T10:58:42;4.50;91.90
56478;DHT22;42382;53.210;5.772;2022-12-08T11:01:20;4.60;91.80
56478;DHT22;42382;53.210;5.772;2022-12-08T11:03:50;4.60;91.80
56478;DHT22;42382;53.210;5.772;2022-12-08T11:06:34;4.70;91.80
56478;DHT22;42382;53.210;5.772;2022-12-08T11:14:29;4.60;91.00
56478;DHT22;42382;53.210;5.772;2022-12-08T11:17:07;4.60;90.80
56478;DHT22;42382;53.210;5.772;2022-12-08T11:19:42;4.40;90.50
56478;DHT22;42382;53.210;5.772;2022-12-08T11:22:29;4.40;90.30
56478;DHT22;42382;53.210;5.772;2022-12-08T11:25:16;4.30;90.50
56478;DHT22;42382;53.210;5.772;2022-12-08T11:27:45;4.30;90.50
56478;DHT22;42382;53.210;5.772;2022-12-08T11:30:20;4.30;90.50
56478;DHT22;42382;53.210;5.772;2022-12-08T11:32:56;4.30;90.20
56478;DHT22;42382;53.210;5.772;2022-12-08T11:35:39;4.30;90.00
56478;DHT22;42382;53.210;5.772;2022-12-08T11:38:12;4.30;90.00
56478;DHT22;42382;53.210;5.772;2022-12-08T11:40:41;4.30;90.10
56478;DHT22;42382;53.210;5.772;2022-12-08T11:45:43;4.40;90.30
56478;DHT22;42382;53.210;5.772;2022-12-08T11:48:29;4.40;90.40
56478;DHT22;42382;53.210;5.772;2022-12-08T11:51:04;4.50;90.50
56478;DHT22;42382;53.210;5.772;2022-12-08T11:53:49;4.50;90.60
56478;DHT22;42382;53.210;5.772;2022-12-08T11:56:20;4.50;90.60
56478;DHT22;42382;53.210;5.772;2022-12-08T11:58:57;4.60;90.60
56478;DHT22;42382;53.210;5.772;2022-12-08T12:01:25;4.50;90.60
56478;DHT22;42382;53.210;5.772;2022-12-08T12:15:21;4.30;90.40
56478;DHT22;42382;53.210;5.772;2022-12-08T12:20:34;4.30;90.50
56478;DHT22;42382;53.210;5.772;2022-12-08T12:23:02;4.30;90.60
56478;DHT22;42382;53.210;5.772;2022-12-08T12:25:31;4.30;90.60
56478;DHT22;42382;53.210;5.772;2022-12-08T12:28:04;4.30;90.60
56478;DHT22;42382;53.210;5.772;2022-12-08T12:30:51;4.30;90.40
56478;DHT22;42382;53.210;5.772;2022-12-08T12:33:19;4.30;90.50
56478;DHT22;42382;53.210;5.772;2022-12-08T12:35:46;4.30;90.40
56478;DHT22;42382;53.210;5.772;2022-12-08T12:38:32;4.40;90.30
56478;DHT22;42382;53.210;5.772;2022-12-08T12:41:22;4.50;90.30
56478;DHT22;42382;53.210;5.772;2022-12-08T12:46:57;4.60;90.30
56478;DHT22;42382;53.210;5.772;2022-12-08T13:02:44;4.80;89.30
56478;DHT22;42382;53.210;5.772;2022-12-08T13:07:55;4.80;89.40
56478;DHT22;42382;53.210;5.772;2022-12-08T13:15:52;4.90;89.30
56478;DHT22;42382;53.210;5.772;2022-12-08T13:26:23;4.90;88.60
56478;DHT22;42382;53.210;5.772;2022-12-08T13:31:54;4.90;88.60
56478;DHT22;42382;53.210;5.772;2022-12-08T13:34:50;4.80;88.50
56478;DHT22;42382;53.210;5.772;2022-12-08T13:37:25;4.80;88.60
56478;DHT22;42382;53.210;5.772;2022-12-08T13:40:20;4.70;88.60
56478;DHT22;42382;53.210;5.772;2022-12-08T13:45:34;4.60;88.50
56478;DHT22;42382;53.210;5.772;2022-12-08T13:48:09;4.60;88.50
56478;DHT22;42382;53.210;5.772;2022-12-08T13:50:40;4.60;88.50
56478;DHT22;42382;53.210;5.772;2022-12-08T13:53:24;4.60;88.60
56478;DHT22;42382;53.210;5.772;2022-12-08T13:55:57;4.70;88.60
56478;DHT22;42382;53.210;5.772;2022-12-08T13:58:42;4.70;88.60
56478;DHT22;42382;53.210;5.772;2022-12-08T14:01:42;4.70;88.60
56478;DHT22;42382;53.210;5.772;2022-12-08T14:04:17;4.60;88.40
56478;DHT22;42382;53.210;5.772;2022-12-08T14:06:48;4.70;88.50
56478;DHT22;42382;53.210;5.772;2022-12-08T14:09:17;4.60;88.40
56478;DHT22;42382;53.210;5.772;2022-12-08T14:11:46;4.60;88.40
56478;DHT22;42382;53.210;5.772;2022-12-08T14:17:05;4.60;88.30
56478;DHT22;42382;53.210;5.772;2022-12-08T14:19:33;4.60;88.20
56478;DHT22;42382;53.210;5.772;2022-12-08T14:24:29;4.60;88.20
56478;DHT22;42382;53.210;5.772;2022-12-08T14:27:07;4.40;88.10
56478;DHT22;42382;53.210;5.772;2022-12-08T14:29:53;4.40;88.00
56478;DHT22;42382;53.210;5.772;2022-12-08T14:34:49;4.30;88.00
56478;DHT22;42382;53.210;5.772;2022-12-08T14:37:15;4.20;88.20
56478;DHT22;42382;53.210;5.772;2022-12-08T14:39:40;4.10;88.10
56478;DHT22;42382;53.210;5.772;2022-12-08T14:42:11;4.00;88.10
56478;DHT22;42382;53.210;5.772;2022-12-08T14:44:39;4.00;88.10
56478;DHT22;42382;53.210;5.772;2022-12-08T14:47:08;3.90;88.10
56478;DHT22;42382;53.210;5.772;2022-12-08T14:49:39;3.90;88.10
56478;DHT22;42382;53.210;5.772;2022-12-08T14:52:10;3.80;88.10
56478;DHT22;42382;53.210;5.772;2022-12-08T14:54:36;3.70;88.10
56478;DHT22;42382;53.210;5.772;2022-12-08T14:57:03;3.60;88.10
56478;DHT22;42382;53.210;5.772;2022-12-08T14:59:30;3.60;88.10
56478;DHT22;42382;53.210;5.772;2022-12-08T15:04:48;3.40;88.20
56478;DHT22;42382;53.210;5.772;2022-12-08T15:07:21;3.40;88.30
56478;DHT22;42382;53.210;5.772;2022-12-08T15:15:30;3.10;88.50
56478;DHT22;42382;53.210;5.772;2022-12-08T15:20:51;3.10;88.60
56478;DHT22;42382;53.210;5.772;2022-12-08T15:23:24;3.00;88.70
56478;DHT22;42382;53.210;5.772;2022-12-08T15:25:50;2.90;88.80
56478;DHT22;42382;53.210;5.772;2022-12-08T15:28:19;2.90;88.80
56478;DHT22;42382;53.210;5.772;2022-12-08T15:30:47;2.90;88.90
56478;DHT22;42382;53.210;5.772;2022-12-08T15:33:13;2.80;89.00
56478;DHT22;42382;53.210;5.772;2022-12-08T15:35:38;2.80;89.00
56478;DHT22;42382;53.210;5.772;2022-12-08T15:38:05;2.80;89.20
56478;DHT22;42382;53.210;5.772;2022-12-08T15:40:31;2.80;89.20
56478;DHT22;42382;53.210;5.772;2022-12-08T15:42:56;2.80;89.30
56478;DHT22;42382;53.210;5.772;2022-12-08T15:45:27;2.80;89.30
56478;DHT22;42382;53.210;5.772;2022-12-08T15:47:55;2.70;89.40
56478;DHT22;42382;53.210;5.772;2022-12-08T15:50:21;2.70;89.40
56478;DHT22;42382;53.210;5.772;2022-12-08T15:52:48;2.70;89.40
56478;DHT22;42382;53.210;5.772;2022-12-08T15:55:16;2.60;89.50
56478;DHT22;42382;53.210;5.772;2022-12-08T15:57:46;2.60;89.50
56478;DHT22;42382;53.210;5.772;2022-12-08T16:02:51;2.50;89.60
56478;DHT22;42382;53.210;5.772;2022-12-08T16:05:16;2.40;89.50
56478;DHT22;42382;53.210;5.772;2022-12-08T16:07:42;2.40;89.50
56478;DHT22;42382;53.210;5.772;2022-12-08T16:10:22;2.30;89.50
56478;DHT22;42382;53.210;5.772;2022-12-08T16:12:48;2.30;89.60
56478;DHT22;42382;53.210;5.772;2022-12-08T16:15:38;2.20;89.60
56478;DHT22;42382;53.210;5.772;2022-12-08T16:18:05;2.20;89.70
56478;DHT22;42382;53.210;5.772;2022-12-08T16:20:31;2.10;89.70
56478;DHT22;42382;53.210;5.772;2022-12-08T16:22:56;2.10;89.70
56478;DHT22;42382;53.210;5.772;2022-12-08T16:25:23;2.10;89.70
56478;DHT22;42382;53.210;5.772;2022-12-08T16:27:51;2.00;89.80
56478;DHT22;42382;53.210;5.772;2022-12-08T16:30:17;2.00;89.80
56478;DHT22;42382;53.210;5.772;2022-12-08T16:32:43;2.00;89.90
56478;DHT22;42382;53.210;5.772;2022-12-08T16:35:12;1.90;89.90
56478;DHT22;42382;53.210;5.772;2022-12-08T16:37:38;1.90;90.00
56478;DHT22;42382;53.210;5.772;2022-12-08T16:40:07;1.90;90.00
56478;DHT22;42382;53.210;5.772;2022-12-08T16:42:33;1.80;90.10
56478;DHT22;42382;53.210;5.772;2022-12-08T16:45:23;1.80;90.10
56478;DHT22;42382;53.210;5.772;2022-12-08T16:47:54;1.80;90.20
56478;DHT22;42382;53.210;5.772;2022-12-08T16:50:29;1.80;90.10
56478;DHT22;42382;53.210;5.772;2022-12-08T16:53:06;1.80;90.20
56478;DHT22;42382;53.210;5.772;2022-12-08T16:55:35;1.70;90.20
56478;DHT22;42382;53.210;5.772;2022-12-08T16:58:01;1.70;90.20
56478;DHT22;42382;53.210;5.772;2022-12-08T17:00:29;1.60;90.30
56478;DHT22;42382;53.210;5.772;2022-12-08T17:02:55;1.60;90.30
56478;DHT22;42382;53.210;5.772;2022-12-08T17:05:23;1.60;90.30
56478;DHT22;42382;53.210;5.772;2022-12-08T17:07:52;1.60;90.40
56478;DHT22;42382;53.210;5.772;2022-12-08T17:10:24;1.60;90.40
56478;DHT22;42382;53.210;5.772;2022-12-08T17:12:53;1.50;90.40
56478;DHT22;42382;53.210;5.772;2022-12-08T17:15:21;1.60;90.50
56478;DHT22;42382;53.210;5.772;2022-12-08T17:17:47;1.50;90.50
56478;DHT22;42382;53.210;5.772;2022-12-08T17:20:17;1.50;90.50
56478;DHT22;42382;53.210;5.772;2022-12-08T17:22:43;1.50;90.60
56478;DHT22;42382;53.210;5.772;2022-12-08T17:25:09;1.40;90.60
56478;DHT22;42382;53.210;5.772;2022-12-08T17:27:35;1.40;90.60
56478;DHT22;42382;53.210;5.772;2022-12-08T17:30:01;1.40;90.60
56478;DHT22;42382;53.210;5.772;2022-12-08T17:32:26;1.30;90.70
56478;DHT22;42382;53.210;5.772;2022-12-08T17:34:52;1.40;90.70
56478;DHT22;42382;53.210;5.772;2022-12-08T17:37:18;1.30;90.70
56478;DHT22;42382;53.210;5.772;2022-12-08T17:39:44;1.30;90.70
56478;DHT22;42382;53.210;5.772;2022-12-08T17:42:09;1.30;90.70
56478;DHT22;42382;53.210;5.772;2022-12-08T17:44:35;1.30;90.80
56478;DHT22;42382;53.210;5.772;2022-12-08T17:47:02;1.30;90.80
56478;DHT22;42382;53.210;5.772;2022-12-08T17:49:32;1.20;90.80
56478;DHT22;42382;53.210;5.772;2022-12-08T17:52:01;1.20;90.80